sensor_id;sensor_type;location;lat;lon;timestamp;temperature;humidity
2999;DHT22;1509;51.964;7.628;2024-01-15T00:02:15;1.60;99.90
2999;DHT22;1509;51.964;7.628;2024-01-15T00:04:40;1.50;99.90
2999;DHT22;1509;51.964;7.628;2024-01-15T00:07:07;1.50;99.90
2999;DHT22;1509;51.964;7.628;2024-01-15T00:09:33;1.50;99.90
2999;DHT22;1509;51.964;7.628;2024-01-15T00:11:59;1.50;99.90
2999;DHT22;1509;51.964;7.628;2024-01-15T00:14:27;1.50;99.90
2999;DHT22;1509;51.964;7.628;2024-01-15T00:16:53;1.50;99.90
2999;DHT22;1509;51.964;7.628;2024-01-15T00:19:23;1.40;99.90
2999;DHT22;1509;51.964;7.628;2024-01-15T00:21:49;1.40;99.90
2999;DHT22;1509;51.964;7.628;2024-01-15T00:24:15;1.40;99.90
2999;DHT22;1509;51.964;7.628;2024-01-15T00:26:41;1.30;99.90
2999;DHT22;1509;51.964;7.628;2024-01-15T00:29:07;1.30;99.90
2999;DHT22;1509;51.964;7.628;2024-01-15T00:31:33;1.30;99.90
2999;DHT22;1509;51.964;7.628;2024-01-15T00:33:59;1.40;99.90
2999;DHT22;1509;51.964;7.628;2024-01-15T00:36:25;1.20;99.90
2999;DHT22;1509;51.964;7.628;2024-01-15T00:38:51;1.20;99.90
2999;DHT22;1509;51.964;7.628;2024-01-15T00:41:17;1.20;99.90
2999;DHT22;1509;51.964;7.628;2024-01-15T00:43:45;1.20;99.90
2999;DHT22;1509;51.964;7.628;2024-01-15T00:46:11;1.30;99.90
2999;DHT22;1509;51.964;7.628;2024-01-15T00:48:37;1.30;99.90
2999;DHT22;1509;51.964;7.628;2024-01-15T00:51:03;1.30;99.90
2999;DHT22;1509;51.964;7.628;2024-01-15T00:53:29;1.30;99.90
2999;DHT22;1509;51.964;7.628;2024-01-15T00:55:55;1.30;99.90
2999;DHT22;1509;51.964;7.628;2024-01-15T00:58:20;1.30;99.90
2999;DHT22;1509;51.964;7.628;2024-01-15T01:00:46;1.30;99.90
2999;DHT22;1509;51.964;7.628;2024-01-15T01:03:12;1.30;99.90
2999;DHT22;1509;51.964;7.628;2024-01-15T01:05:37;1.50;99.90
2999;DHT22;1509;51.964;7.628;2024-01-15T01:08:03;1.30;99.90
2999;DHT22;1509;51.964;7.628;2024-01-15T01:10:29;1.30;99.90
2999;DHT22;1509;51.964;7.628;2024-01-15T01:12:54;1.30;99.90
2999;DHT22;1509;51.964;7.628;2024-01-15T01:15:20;1.30;99.90
2999;DHT22;1509;51.964;7.628;2024-01-15T01:17:46;1.30;99.90
2999;DHT22;1509;51.964;7.628;2024-01-15T01:20:12;1.30;99.90
2999;DHT22;1509;51.964;7.628;2024-01-15T01:22:38;1.30;99.90
2999;DHT22;1509;51.964;7.628;2024-01-15T01:25:04;1.30;99.90
2999;DHT22;1509;51.964;7.628;2024-01-15T01:27:30;1.30;99.90
2999;DHT22;1509;51.964;7.628;2024-01-15T01:29:56;1.30;99.90
2999;DHT22;1509;51.964;7.628;2024-01-15T01:32:21;1.30;99.90
2999;DHT22;1509;51.964;7.628;2024-01-15T01:34:47;1.20;99.90
2999;DHT22;1509;51.964;7.628;2024-01-15T01:37:13;1.20;99.90
2999;DHT22;1509;51.964;7.628;2024-01-15T01:39:43;1.20;99.90
2999;DHT22;1509;51.964;7.628;2024-01-15T01:42:08;1.30;99.90
2999;DHT22;1509;51.964;7.628;2024-01-15T01:44:34;1.30;99.90
2999;DHT22;1509;51.964;7.628;2024-01-15T01:47:00;1.20;99.90
2999;DHT22;1509;51.964;7.628;2024-01-15T01:49:27;1.20;99.90
2999;DHT22;1509;51.964;7.628;2024-01-15T01:51:55;1.20;99.90
2999;DHT22;1509;51.964;7.628;2024-01-15T01:54:21;1.20;99.90
2999;DHT22;1509;51.964;7.628;2024-01-15T01:56:47;1.20;99.90
2999;DHT22;1509;51.964;7.628;2024-01-15T01:59:14;1.20;99.90
2999;DHT22;1509;51.964;7.628;2024-01-15T02:01:40;1.20;99.90
2999;DHT22;1509;51.964;7.628;2024-01-15T02:04:06;1.20;99.90
2999;DHT22;1509;51.964;7.628;2024-01-15T02:06:34;1.20;99.90
2999;DHT22;1509;51.964;7.628;2024-01-15T02:09:00;1.20;99.90
2999;DHT22;1509;51.964;7.628;2024-01-15T02:11:26;1.20;99.90
2999;DHT22;1509;51.964;7.628;2024-01-15T02:13:52;1.20;99.90
2999;DHT22;1509;51.964;7.628;2024-01-15T02:16:17;1.20;99.90
2999;DHT22;1509;51.964;7.628;2024-01-15T02:18:44;1.20;99.90
2999;DHT22;1509;51.964;7.628;2024-01-15T02:21:10;1.20;99.90
2999;DHT22;1509;51.964;7.628;2024-01-15T02:23:36;1.20;99.90
2999;DHT22;1509;51.964;7.628;2024-01-15T02:26:03;1.20;99.90
2999;DHT22;1509;51.964;7.628;2024-01-15T02:28:29;1.20;99.90
2999;DHT22;1509;51.964;7.628;2024-01-15T02:30:55;1.10;99.90
2999;DHT22;1509;51.964;7.628;2024-01-15T02:33:21;1.10;99.90
2999;DHT22;1509;51.964;7.628;2024-01-15T02:35:46;1.10;99.90
2999;DHT22;1509;51.964;7.628;2024-01-15T02:38:18;1.10;99.90
2999;DHT22;1509;51.964;7.628;2024-01-15T02:40:44;1.10;99.90
2999;DHT22;1509;51.964;7.628;2024-01-15T02:43:10;1.10;99.90
2999;DHT22;1509;51.964;7.628;2024-01-15T02:45:36;1.20;99.90
2999;DHT22;1509;51.964;7.628;2024-01-15T02:48:02;1.20;99.90
2999;DHT22;1509;51.964;7.628;2024-01-15T02:50:27;1.20;99.90
2999;DHT22;1509;51.964;7.628;2024-01-15T02:52:53;1.30;99.90
2999;DHT22;1509;51.964;7.628;2024-01-15T02:55:18;1.30;99.90
2999;DHT22;1509;51.964;7.628;2024-01-15T02:57:44;1.30;99.90
2999;DHT22;1509;51.964;7.628;2024-01-15T03:00:10;1.30;99.90
2999;DHT22;1509;51.964;7.628;2024-01-15T03:02:37;1.30;99.90
2999;DHT22;1509;51.964;7.628;2024-01-15T03:05:07;1.40;99.90
2999;DHT22;1509;51.964;7.628;2024-01-15T03:07:33;1.40;99.90
2999;DHT22;1509;51.964;7.628;2024-01-15T03:09:59;1.30;99.90
2999;DHT22;1509;51.964;7.628;2024-01-15T03:12:24;1.30;99.90
2999;DHT22;1509;51.964;7.628;2024-01-15T03:14:50;1.20;99.90
2999;DHT22;1509;51.964;7.628;2024-01-15T03:17:16;1.20;99.90
2999;DHT22;1509;51.964;7.628;2024-01-15T03:19:41;1.20;99.90
2999;DHT22;1509;51.964;7.628;2024-01-15T03:22:07;1.20;99.90
2999;DHT22;1509;51.964;7.628;2024-01-15T03:24:34;1.10;99.90
2999;DHT22;1509;51.964;7.628;2024-01-15T03:27:00;1.10;99.90
2999;DHT22;1509;51.964;7.628;2024-01-15T03:29:26;1.10;99.90
2999;DHT22;1509;51.964;7.628;2024-01-15T03:31:52;1.10;99.90
2999;DHT22;1509;51.964;7.628;2024-01-15T03:34:17;1.20;99.90
2999;DHT22;1509;51.964;7.628;2024-01-15T03:36:43;1.10;99.90
2999;DHT22;1509;51.964;7.628;2024-01-15T03:39:09;1.10;99.90
2999;DHT22;1509;51.964;7.628;2024-01-15T03:41:34;1.20;99.90
2999;DHT22;1509;51.964;7.628;2024-01-15T03:44:00;1.20;99.90
2999;DHT22;1509;51.964;7.628;2024-01-15T03:46:26;1.20;99.90
2999;DHT22;1509;51.964;7.628;2024-01-15T03:48:52;1.20;99.90
2999;DHT22;1509;51.964;7.628;2024-01-15T03:51:18;1.30;99.90
2999;DHT22;1509;51.964;7.628;2024-01-15T03:53:44;1.30;99.90
2999;DHT22;1509;51.964;7.628;2024-01-15T03:56:09;1.60;99.90
2999;DHT22;1509;51.964;7.628;2024-01-15T03:58:35;1.30;99.90
2999;DHT22;1509;51.964;7.628;2024-01-15T04:01:00;1.30;99.90
2999;DHT22;1509;51.964;7.628;2024-01-15T04:03:26;1.30;99.90
2999;DHT22;1509;51.964;7.628;2024-01-15T04:05:51;1.30;99.90
2999;DHT22;1509;51.964;7.628;2024-01-15T04:08:17;1.20;99.90
2999;DHT22;1509;51.964;7.628;2024-01-15T04:10:43;1.20;99.90
2999;DHT22;1509;51.964;7.628;2024-01-15T04:13:08;1.30;99.90
2999;DHT22;1509;51.964;7.628;2024-01-15T04:15:34;1.20;99.90
2999;DHT22;1509;51.964;7.628;2024-01-15T04:18:00;1.30;99.90
2999;DHT22;1509;51.964;7.628;2024-01-15T04:20:26;1.30;99.90
2999;DHT22;1509;51.964;7.628;2024-01-15T04:22:52;1.30;99.90
2999;DHT22;1509;51.964;7.628;2024-01-15T04:25:17;1.30;99.90
2999;DHT22;1509;51.964;7.628;2024-01-15T04:27:43;1.00;99.90
2999;DHT22;1509;51.964;7.628;2024-01-15T04:30:09;1.30;99.90
2999;DHT22;1509;51.964;7.628;2024-01-15T04:32:35;1.30;99.90
2999;DHT22;1509;51.964;7.628;2024-01-15T04:35:01;1.30;99.90
2999;DHT22;1509;51.964;7.628;2024-01-15T04:37:26;1.30;99.90
2999;DHT22;1509;51.964;7.628;2024-01-15T04:39:52;1.30;99.90
2999;DHT22;1509;51.964;7.628;2024-01-15T04:42:20;1.30;99.90
2999;DHT22;1509;51.964;7.628;2024-01-15T04:44:46;1.30;99.90
2999;DHT22;1509;51.964;7.628;2024-01-15T04:47:12;1.20;99.90
2999;DHT22;1509;51.964;7.628;2024-01-15T04:49:38;1.20;99.90
2999;DHT22;1509;51.964;7.628;2024-01-15T04:52:03;1.10;99.90
2999;DHT22;1509;51.964;7.628;2024-01-15T04:54:29;1.10;99.90
2999;DHT22;1509;51.964;7.628;2024-01-15T04:56:54;1.10;99.90
2999;DHT22;1509;51.964;7.628;2024-01-15T04:59:20;1.10;99.90
2999;DHT22;1509;51.964;7.628;2024-01-15T05:01:46;1.10;99.90
2999;DHT22;1509;51.964;7.628;2024-01-15T05:04:12;1.10;99.90
2999;DHT22;1509;51.964;7.628;2024-01-15T05:06:38;1.10;99.90
2999;DHT22;1509;51.964;7.628;2024-01-15T05:09:04;1.20;99.90
2999;DHT22;1509;51.964;7.628;2024-01-15T05:11:29;1.10;99.90
2999;DHT22;1509;51.964;7.628;2024-01-15T05:13:55;1.10;99.90
2999;DHT22;1509;51.964;7.628;2024-01-15T05:16:23;1.20;99.90
2999;DHT22;1509;51.964;7.628;2024-01-15T05:18:49;1.20;99.90
2999;DHT22;1509;51.964;7.628;2024-01-15T05:21:15;1.30;99.90
2999;DHT22;1509;51.964;7.628;2024-01-15T05:23:40;1.20;99.90
2999;DHT22;1509;51.964;7.628;2024-01-15T05:26:06;1.30;99.90
2999;DHT22;1509;51.964;7.628;2024-01-15T05:28:31;1.20;99.90
2999;DHT22;1509;51.964;7.628;2024-01-15T05:30:57;1.40;99.90
2999;DHT22;1509;51.964;7.628;2024-01-15T05:33:23;1.30;99.90
2999;DHT22;1509;51.964;7.628;2024-01-15T05:35:49;1.30;99.90
2999;DHT22;1509;51.964;7.628;2024-01-15T05:38:16;1.40;99.90
2999;DHT22;1509;51.964;7.628;2024-01-15T05:40:42;1.40;99.90
2999;DHT22;1509;51.964;7.628;2024-01-15T05:43:07;1.20;99.90
2999;DHT22;1509;51.964;7.628;2024-01-15T05:45:37;1.30;99.90
2999;DHT22;1509;51.964;7.628;2024-01-15T05:48:03;1.20;99.90
2999;DHT22;1509;51.964;7.628;2024-01-15T05:50:29;1.30;99.90
2999;DHT22;1509;51.964;7.628;2024-01-15T05:52:55;1.20;99.90
2999;DHT22;1509;51.964;7.628;2024-01-15T05:55:20;1.30;99.90
2999;DHT22;1509;51.964;7.628;2024-01-15T05:57:46;1.30;99.90
2999;DHT22;1509;51.964;7.628;2024-01-15T06:00:12;1.30;99.90
2999;DHT22;1509;51.964;7.628;2024-01-15T06:02:38;1.30;99.90
2999;DHT22;1509;51.964;7.628;2024-01-15T06:05:08;1.30;99.90
2999;DHT22;1509;51.964;7.628;2024-01-15T06:07:34;1.30;99.90
2999;DHT22;1509;51.964;7.628;2024-01-15T06:10:01;1.50;99.90
2999;DHT22;1509;51.964;7.628;2024-01-15T06:12:28;1.20;99.90
2999;DHT22;1509;51.964;7.628;2024-01-15T06:14:53;1.20;99.90
2999;DHT22;1509;51.964;7.628;2024-01-15T06:17:22;1.20;99.90
2999;DHT22;1509;51.964;7.628;2024-01-15T06:19:47;1.30;99.90
2999;DHT22;1509;51.964;7.628;2024-01-15T06:22:13;1.30;99.90
2999;DHT22;1509;51.964;7.628;2024-01-15T06:24:38;1.20;99.90
2999;DHT22;1509;51.964;7.628;2024-01-15T06:27:04;1.30;99.90
2999;DHT22;1509;51.964;7.628;2024-01-15T06:29:30;1.20;99.90
2999;DHT22;1509;51.964;7.628;2024-01-15T06:31:55;1.20;99.90
2999;DHT22;1509;51.964;7.628;2024-01-15T06:34:21;1.20;99.90
2999;DHT22;1509;51.964;7.628;2024-01-15T06:36:46;1.20;99.90
2999;DHT22;1509;51.964;7.628;2024-01-15T06:39:12;1.20;99.90
2999;DHT22;1509;51.964;7.628;2024-01-15T06:41:38;1.20;99.90
2999;DHT22;1509;51.964;7.628;2024-01-15T06:44:12;1.20;99.90
2999;DHT22;1509;51.964;7.628;2024-01-15T06:46:42;1.20;99.90
2999;DHT22;1509;51.964;7.628;2024-01-15T06:49:08;1.30;99.90
2999;DHT22;1509;51.964;7.628;2024-01-15T06:51:34;1.20;99.90
2999;DHT22;1509;51.964;7.628;2024-01-15T06:54:00;1.30;99.90
2999;DHT22;1509;51.964;7.628;2024-01-15T06:56:26;1.50;99.90
2999;DHT22;1509;51.964;7.628;2024-01-15T06:58:52;1.20;99.90
2999;DHT22;1509;51.964;7.628;2024-01-15T07:01:17;1.20;99.90
2999;DHT22;1509;51.964;7.628;2024-01-15T07:03:43;1.20;99.90
2999;DHT22;1509;51.964;7.628;2024-01-15T07:06:08;1.20;99.90
2999;DHT22;1509;51.964;7.628;2024-01-15T07:08:34;1.20;99.90
2999;DHT22;1509;51.964;7.628;2024-01-15T07:11:03;1.10;99.90
2999;DHT22;1509;51.964;7.628;2024-01-15T07:13:28;1.00;99.90
2999;DHT22;1509;51.964;7.628;2024-01-15T07:15:54;1.00;99.90
2999;DHT22;1509;51.964;7.628;2024-01-15T07:18:19;1.20;99.90
2999;DHT22;1509;51.964;7.628;2024-01-15T07:20:45;0.90;99.90
2999;DHT22;1509;51.964;7.628;2024-01-15T07:23:11;0.90;99.90
2999;DHT22;1509;51.964;7.628;2024-01-15T07:25:37;1.10;99.90
2999;DHT22;1509;51.964;7.628;2024-01-15T07:28:03;0.90;99.90
2999;DHT22;1509;51.964;7.628;2024-01-15T07:30:31;0.90;99.90
2999;DHT22;1509;51.964;7.628;2024-01-15T07:32:57;0.90;99.90
2999;DHT22;1509;51.964;7.628;2024-01-15T07:35:23;1.20;99.90
2999;DHT22;1509;51.964;7.628;2024-01-15T07:37:48;1.00;99.90
2999;DHT22;1509;51.964;7.628;2024-01-15T07:40:14;0.90;99.90
2999;DHT22;1509;51.964;7.628;2024-01-15T07:42:40;0.90;99.90
2999;DHT22;1509;51.964;7.628;2024-01-15T07:45:08;1.00;99.90
2999;DHT22;1509;51.964;7.628;2024-01-15T07:47:34;1.00;99.90
2999;DHT22;1509;51.964;7.628;2024-01-15T07:49:59;1.00;99.90
2999;DHT22;1509;51.964;7.628;2024-01-15T07:52:25;1.10;99.90
2999;DHT22;1509;51.964;7.628;2024-01-15T07:54:50;1.00;99.90
2999;DHT22;1509;51.964;7.628;2024-01-15T07:57:19;1.00;99.90
2999;DHT22;1509;51.964;7.628;2024-01-15T07:59:44;1.10;99.90
2999;DHT22;1509;51.964;7.628;2024-01-15T08:02:10;1.10;99.90
2999;DHT22;1509;51.964;7.628;2024-01-15T08:04:39;1.10;99.90
2999;DHT22;1509;51.964;7.628;2024-01-15T08:07:05;1.00;99.90
2999;DHT22;1509;51.964;7.628;2024-01-15T08:09:32;1.10;99.90
2999;DHT22;1509;51.964;7.628;2024-01-15T08:11:58;1.10;99.90
2999;DHT22;1509;51.964;7.628;2024-01-15T08:14:24;1.10;99.90
2999;DHT22;1509;51.964;7.628;2024-01-15T08:16:49;1.00;99.90
2999;DHT22;1509;51.964;7.628;2024-01-15T08:19:16;1.10;99.90
2999;DHT22;1509;51.964;7.628;2024-01-15T08:21:41;1.10;99.90
2999;DHT22;1509;51.964;7.628;2024-01-15T08:24:08;1.10;99.90
2999;DHT22;1509;51.964;7.628;2024-01-15T08:26:34;1.10;99.90
2999;DHT22;1509;51.964;7.628;2024-01-15T08:29:03;1.20;99.90
2999;DHT22;1509;51.964;7.628;2024-01-15T08:31:29;1.20;99.90
2999;DHT22;1509;51.964;7.628;2024-01-15T08:34:00;1.20;99.90
2999;DHT22;1509;51.964;7.628;2024-01-15T08:36:27;1.20;99.90
2999;DHT22;1509;51.964;7.628;2024-01-15T08:38:55;1.20;99.90
2999;DHT22;1509;51.964;7.628;2024-01-15T08:41:35;1.20;99.90
2999;DHT22;1509;51.964;7.628;2024-01-15T08:44:01;1.20;99.90
2999;DHT22;1509;51.964;7.628;2024-01-15T08:46:28;1.50;99.90
2999;DHT22;1509;51.964;7.628;2024-01-15T08:48:54;1.20;99.90
2999;DHT22;1509;51.964;7.628;2024-01-15T08:51:19;1.30;99.90
2999;DHT22;1509;51.964;7.628;2024-01-15T08:53:45;1.30;99.90
2999;DHT22;1509;51.964;7.628;2024-01-15T08:56:10;1.30;99.90
2999;DHT22;1509;51.964;7.628;2024-01-15T08:58:36;1.30;99.90
2999;DHT22;1509;51.964;7.628;2024-01-15T09:01:02;1.40;99.90
2999;DHT22;1509;51.964;7.628;2024-01-15T09:03:30;1.40;99.90
2999;DHT22;1509;51.964;7.628;2024-01-15T09:05:55;1.50;99.90
2999;DHT22;1509;51.964;7.628;2024-01-15T09:08:21;1.40;99.90
2999;DHT22;1509;51.964;7.628;2024-01-15T09:10:47;1.50;99.90
2999;DHT22;1509;51.964;7.628;2024-01-15T09:13:12;1.50;99.90
2999;DHT22;1509;51.964;7.628;2024-01-15T09:15:38;1.60;99.90
2999;DHT22;1509;51.964;7.628;2024-01-15T09:18:04;1.50;99.90
2999;DHT22;1509;51.964;7.628;2024-01-15T09:20:30;1.50;99.90
2999;DHT22;1509;51.964;7.628;2024-01-15T09:22:58;1.50;99.90
2999;DHT22;1509;51.964;7.628;2024-01-15T09:25:27;1.80;99.90
2999;DHT22;1509;51.964;7.628;2024-01-15T09:27:53;1.50;99.90
2999;DHT22;1509;51.964;7.628;2024-01-15T09:30:19;1.50;99.90
2999;DHT22;1509;51.964;7.628;2024-01-15T09:32:45;1.60;99.90
2999;DHT22;1509;51.964;7.628;2024-01-15T09:35:10;1.60;99.90
2999;DHT22;1509;51.964;7.628;2024-01-15T09:37:36;1.50;99.90
2999;DHT22;1509;51.964;7.628;2024-01-15T09:40:06;1.70;99.90
2999;DHT22;1509;51.964;7.628;2024-01-15T09:42:32;1.50;99.90
2999;DHT22;1509;51.964;7.628;2024-01-15T09:44:58;1.50;99.90
2999;DHT22;1509;51.964;7.628;2024-01-15T09:47:24;1.50;99.90
2999;DHT22;1509;51.964;7.628;2024-01-15T09:49:50;1.50;99.90
2999;DHT22;1509;51.964;7.628;2024-01-15T09:52:16;1.60;99.90
2999;DHT22;1509;51.964;7.628;2024-01-15T09:54:46;1.90;99.90
2999;DHT22;1509;51.964;7.628;2024-01-15T09:57:13;1.60;99.90
2999;DHT22;1509;51.964;7.628;2024-01-15T09:59:40;1.60;99.90
2999;DHT22;1509;51.964;7.628;2024-01-15T10:02:07;1.60;99.90
2999;DHT22;1509;51.964;7.628;2024-01-15T10:04:36;1.80;99.90
2999;DHT22;1509;51.964;7.628;2024-01-15T10:07:03;1.70;99.90
2999;DHT22;1509;51.964;7.628;2024-01-15T10:09:30;1.70;99.90
2999;DHT22;1509;51.964;7.628;2024-01-15T10:11:55;1.70;99.90
2999;DHT22;1509;51.964;7.628;2024-01-15T10:14:21;1.80;99.90
2999;DHT22;1509;51.964;7.628;2024-01-15T10:16:47;1.80;99.90
2999;DHT22;1509;51.964;7.628;2024-01-15T10:19:13;1.90;99.90
2999;DHT22;1509;51.964;7.628;2024-01-15T10:21:41;1.90;99.90
2999;DHT22;1509;51.964;7.628;2024-01-15T10:24:10;2.10;99.90
2999;DHT22;1509;51.964;7.628;2024-01-15T10:26:37;2.30;99.90
2999;DHT22;1509;51.964;7.628;2024-01-15T10:29:03;3.00;99.90
2999;DHT22;1509;51.964;7.628;2024-01-15T10:31:28;3.40;99.90
2999;DHT22;1509;51.964;7.628;2024-01-15T10:33:56;3.40;99.90
2999;DHT22;1509;51.964;7.628;2024-01-15T10:36:34;3.50;99.90
2999;DHT22;1509;51.964;7.628;2024-01-15T10:39:00;3.30;99.90
2999;DHT22;1509;51.964;7.628;2024-01-15T10:41:28;3.40;99.90
2999;DHT22;1509;51.964;7.628;2024-01-15T10:43:54;3.60;99.90
2999;DHT22;1509;51.964;7.628;2024-01-15T10:46:20;3.50;99.90
2999;DHT22;1509;51.964;7.628;2024-01-15T10:48:45;3.00;99.90
2999;DHT22;1509;51.964;7.628;2024-01-15T10:51:11;2.80;99.90
2999;DHT22;1509;51.964;7.628;2024-01-15T10:53:39;2.70;99.90
2999;DHT22;1509;51.964;7.628;2024-01-15T10:56:10;2.70;99.90
2999;DHT22;1509;51.964;7.628;2024-01-15T10:58:37;2.70;99.90
2999;DHT22;1509;51.964;7.628;2024-01-15T11:01:04;2.50;99.90
2999;DHT22;1509;51.964;7.628;2024-01-15T11:03:31;2.30;99.90
2999;DHT22;1509;51.964;7.628;2024-01-15T11:05:56;2.30;99.90
2999;DHT22;1509;51.964;7.628;2024-01-15T11:08:24;2.10;99.90
2999;DHT22;1509;51.964;7.628;2024-01-15T11:10:53;2.50;99.90
2999;DHT22;1509;51.964;7.628;2024-01-15T11:13:21;2.50;99.90
2999;DHT22;1509;51.964;7.628;2024-01-15T11:18:30;2.40;99.90
2999;DHT22;1509;51.964;7.628;2024-01-15T11:26:31;2.20;99.90
2999;DHT22;1509;51.964;7.628;2024-01-15T11:28:59;2.20;99.90
2999;DHT22;1509;51.964;7.628;2024-01-15T11:34:10;2.20;99.90
2999;DHT22;1509;51.964;7.628;2024-01-15T11:41:57;2.40;99.90
2999;DHT22;1509;51.964;7.628;2024-01-15T11:44:22;2.70;99.90
2999;DHT22;1509;51.964;7.628;2024-01-15T11:47:11;2.50;99.90
2999;DHT22;1509;51.964;7.628;2024-01-15T11:50:00;2.40;99.90
2999;DHT22;1509;51.964;7.628;2024-01-15T11:52:34;2.40;99.90
2999;DHT22;1509;51.964;7.628;2024-01-15T11:57:46;2.80;99.90
2999;DHT22;1509;51.964;7.628;2024-01-15T12:00:13;2.70;99.90
2999;DHT22;1509;51.964;7.628;2024-01-15T12:02:42;2.60;99.90
2999;DHT22;1509;51.964;7.628;2024-01-15T12:05:12;2.50;99.90
2999;DHT22;1509;51.964;7.628;2024-01-15T12:07:42;2.60;99.90
2999;DHT22;1509;51.964;7.628;2024-01-15T12:10:13;2.50;99.90
2999;DHT22;1509;51.964;7.628;2024-01-15T12:12:57;2.40;99.90
2999;DHT22;1509;51.964;7.628;2024-01-15T12:15:24;2.40;99.90
2999;DHT22;1509;51.964;7.628;2024-01-15T12:17:50;2.40;99.90
2999;DHT22;1509;51.964;7.628;2024-01-15T12:20:17;2.30;99.90
2999;DHT22;1509;51.964;7.628;2024-01-15T12:22:43;2.40;99.90
2999;DHT22;1509;51.964;7.628;2024-01-15T12:25:09;2.50;99.90
2999;DHT22;1509;51.964;7.628;2024-01-15T12:27:35;2.70;99.90
2999;DHT22;1509;51.964;7.628;2024-01-15T12:30:01;2.60;99.90
2999;DHT22;1509;51.964;7.628;2024-01-15T12:32:27;2.70;99.90
2999;DHT22;1509;51.964;7.628;2024-01-15T12:34:54;2.60;99.90
2999;DHT22;1509;51.964;7.628;2024-01-15T12:37:20;2.60;99.90
2999;DHT22;1509;51.964;7.628;2024-01-15T12:39:47;2.50;99.90
2999;DHT22;1509;51.964;7.628;2024-01-15T12:42:14;2.40;99.90
2999;DHT22;1509;51.964;7.628;2024-01-15T12:44:42;2.40;99.90
2999;DHT22;1509;51.964;7.628;2024-01-15T12:47:08;2.30;99.90
2999;DHT22;1509;51.964;7.628;2024-01-15T12:49:36;2.20;99.90
2999;DHT22;1509;51.964;7.628;2024-01-15T12:52:03;2.30;99.90
2999;DHT22;1509;51.964;7.628;2024-01-15T12:54:28;2.30;99.90
2999;DHT22;1509;51.964;7.628;2024-01-15T12:56:54;2.40;99.90
2999;DHT22;1509;51.964;7.628;2024-01-15T12:59:20;2.40;99.90
2999;DHT22;1509;51.964;7.628;2024-01-15T13:01:46;2.50;99.90
2999;DHT22;1509;51.964;7.628;2024-01-15T13:04:21;2.50;99.90
2999;DHT22;1509;51.964;7.628;2024-01-15T13:06:47;2.50;99.90
2999;DHT22;1509;51.964;7.628;2024-01-15T13:09:12;2.40;99.90
2999;DHT22;1509;51.964;7.628;2024-01-15T13:11:38;2.30;99.90
2999;DHT22;1509;51.964;7.628;2024-01-15T13:14:03;2.20;99.90
2999;DHT22;1509;51.964;7.628;2024-01-15T13:16:29;2.20;99.90
2999;DHT22;1509;51.964;7.628;2024-01-15T13:18:55;2.60;99.90
2999;DHT22;1509;51.964;7.628;2024-01-15T13:21:24;2.10;99.90
2999;DHT22;1509;51.964;7.628;2024-01-15T13:23:50;2.10;99.90
2999;DHT22;1509;51.964;7.628;2024-01-15T13:26:16;2.20;99.90
2999;DHT22;1509;51.964;7.628;2024-01-15T13:28:43;2.00;99.90
2999;DHT22;1509;51.964;7.628;2024-01-15T13:31:09;2.10;99.90
2999;DHT22;1509;51.964;7.628;2024-01-15T13:33:35;2.10;99.90
2999;DHT22;1509;51.964;7.628;2024-01-15T13:36:01;2.10;99.90
2999;DHT22;1509;51.964;7.628;2024-01-15T13:38:27;2.20;99.90
2999;DHT22;1509;51.964;7.628;2024-01-15T13:40:56;2.20;99.90
2999;DHT22;1509;51.964;7.628;2024-01-15T13:43:22;2.20;99.90
2999;DHT22;1509;51.964;7.628;2024-01-15T13:45:48;2.30;99.90
2999;DHT22;1509;51.964;7.628;2024-01-15T13:48:16;2.20;99.90
2999;DHT22;1509;51.964;7.628;2024-01-15T13:50:42;2.20;99.90
2999;DHT22;1509;51.964;7.628;2024-01-15T13:53:07;2.20;99.90
2999;DHT22;1509;51.964;7.628;2024-01-15T13:55:39;2.20;99.90
2999;DHT22;1509;51.964;7.628;2024-01-15T13:58:05;2.10;99.90
2999;DHT22;1509;51.964;7.628;2024-01-15T14:00:32;2.20;99.90
2999;DHT22;1509;51.964;7.628;2024-01-15T14:02:57;2.20;99.90
2999;DHT22;1509;51.964;7.628;2024-01-15T14:05:23;2.20;99.90
2999;DHT22;1509;51.964;7.628;2024-01-15T14:07:49;2.20;99.90
2999;DHT22;1509;51.964;7.628;2024-01-15T14:10:15;2.20;99.90
2999;DHT22;1509;51.964;7.628;2024-01-15T14:12:41;2.20;99.90
2999;DHT22;1509;51.964;7.628;2024-01-15T14:15:07;2.20;99.90
2999;DHT22;1509;51.964;7.628;2024-01-15T14:17:33;2.20;99.90
2999;DHT22;1509;51.964;7.628;2024-01-15T14:19:59;2.10;99.90
2999;DHT22;1509;51.964;7.628;2024-01-15T14:22:24;1.90;99.90
2999;DHT22;1509;51.964;7.628;2024-01-15T14:24:50;1.80;99.90
2999;DHT22;1509;51.964;7.628;2024-01-15T14:27:16;1.40;99.90
2999;DHT22;1509;51.964;7.628;2024-01-15T14:29:42;1.50;99.90
2999;DHT22;1509;51.964;7.628;2024-01-15T14:32:08;1.40;99.90
2999;DHT22;1509;51.964;7.628;2024-01-15T14:34:33;1.20;99.90
2999;DHT22;1509;51.964;7.628;2024-01-15T14:37:01;1.10;99.90
2999;DHT22;1509;51.964;7.628;2024-01-15T14:39:27;1.10;99.90
2999;DHT22;1509;51.964;7.628;2024-01-15T14:41:53;1.10;99.90
2999;DHT22;1509;51.964;7.628;2024-01-15T14:44:18;1.10;99.90
2999;DHT22;1509;51.964;7.628;2024-01-15T14:46:44;1.10;99.90
2999;DHT22;1509;51.964;7.628;2024-01-15T14:49:11;1.00;99.90
2999;DHT22;1509;51.964;7.628;2024-01-15T14:51:36;1.10;99.90
2999;DHT22;1509;51.964;7.628;2024-01-15T14:54:02;1.10;99.90
2999;DHT22;1509;51.964;7.628;2024-01-15T14:56:28;1.10;99.90
2999;DHT22;1509;51.964;7.628;2024-01-15T14:58:54;1.10;99.90
2999;DHT22;1509;51.964;7.628;2024-01-15T15:01:20;1.20;99.90
2999;DHT22;1509;51.964;7.628;2024-01-15T15:03:45;1.20;99.90
2999;DHT22;1509;51.964;7.628;2024-01-15T15:06:11;1.30;99.90
2999;DHT22;1509;51.964;7.628;2024-01-15T15:08:37;1.30;99.90
2999;DHT22;1509;51.964;7.628;2024-01-15T15:11:04;1.30;99.90
2999;DHT22;1509;51.964;7.628;2024-01-15T15:13:30;1.30;99.90
2999;DHT22;1509;51.964;7.628;2024-01-15T15:15:55;1.30;99.90
2999;DHT22;1509;51.964;7.628;2024-01-15T15:18:21;1.30;99.90
2999;DHT22;1509;51.964;7.628;2024-01-15T15:20:53;1.30;99.90
2999;DHT22;1509;51.964;7.628;2024-01-15T15:23:19;1.30;99.90
2999;DHT22;1509;51.964;7.628;2024-01-15T15:25:44;1.00;99.90
2999;DHT22;1509;51.964;7.628;2024-01-15T15:28:10;1.60;99.90
2999;DHT22;1509;51.964;7.628;2024-01-15T15:30:37;1.30;99.90
2999;DHT22;1509;51.964;7.628;2024-01-15T15:33:03;1.30;99.90
2999;DHT22;1509;51.964;7.628;2024-01-15T15:35:30;1.20;99.90
2999;DHT22;1509;51.964;7.628;2024-01-15T15:37:56;1.20;99.90
2999;DHT22;1509;51.964;7.628;2024-01-15T15:40:21;1.20;99.90
2999;DHT22;1509;51.964;7.628;2024-01-15T15:42:48;1.20;99.90
2999;DHT22;1509;51.964;7.628;2024-01-15T15:45:13;1.20;99.90
2999;DHT22;1509;51.964;7.628;2024-01-15T15:47:39;1.20;99.90
2999;DHT22;1509;51.964;7.628;2024-01-15T15:50:05;1.20;99.90
2999;DHT22;1509;51.964;7.628;2024-01-15T15:52:31;1.20;99.90
2999;DHT22;1509;51.964;7.628;2024-01-15T15:54:57;1.10;99.90
2999;DHT22;1509;51.964;7.628;2024-01-15T15:57:22;1.10;99.90
2999;DHT22;1509;51.964;7.628;2024-01-15T15:59:49;1.10;99.90
2999;DHT22;1509;51.964;7.628;2024-01-15T16:02:14;1.10;99.90
2999;DHT22;1509;51.964;7.628;2024-01-15T16:04:40;1.10;99.90
2999;DHT22;1509;51.964;7.628;2024-01-15T16:07:06;1.10;99.90
2999;DHT22;1509;51.964;7.628;2024-01-15T16:09:35;1.00;99.90
2999;DHT22;1509;51.964;7.628;2024-01-15T16:12:01;1.00;99.90
2999;DHT22;1509;51.964;7.628;2024-01-15T16:14:27;0.80;99.90
2999;DHT22;1509;51.964;7.628;2024-01-15T16:16:55;1.00;99.90
2999;DHT22;1509;51.964;7.628;2024-01-15T16:19:23;1.00;99.90
2999;DHT22;1509;51.964;7.628;2024-01-15T16:21:49;1.00;99.90
2999;DHT22;1509;51.964;7.628;2024-01-15T16:24:15;1.00;99.90
2999;DHT22;1509;51.964;7.628;2024-01-15T16:26:40;1.00;99.90
2999;DHT22;1509;51.964;7.628;2024-01-15T16:29:06;1.10;99.90
2999;DHT22;1509;51.964;7.628;2024-01-15T16:31:33;1.10;99.90